createdAt,value
2022-11-19T00:00:02.079Z,26
2022-11-19T00:05:01.424Z,26
2022-11-19T00:10:01.923Z,14
2022-11-19T00:15:02.289Z,13
2022-11-19T00:20:01.711Z,13
2022-11-19T00:25:02.092Z,14
2022-11-19T00:30:01.585Z,15
2022-11-19T00:35:01.934Z,12
2022-11-19T00:40:01.424Z,9
2022-11-19T00:45:01.835Z,14
2022-11-19T00:50:02.188Z,14
2022-11-19T00:55:01.564Z,14
2022-11-19T01:00:02.066Z,19
2022-11-19T01:05:01.552Z,24
2022-11-19T01:10:02.076Z,13
2022-11-19T01:15:01.574Z,19
2022-11-19T01:20:02.236Z,14
2022-11-19T01:25:01.626Z,19
2022-11-19T01:30:02.016Z,13
2022-11-19T01:35:01.420Z,13
2022-11-19T01:40:01.815Z,14
2022-11-19T01:45:02.305Z,17
2022-11-19T01:50:01.695Z,28
2022-11-19T01:55:02.203Z,23
2022-11-19T02:00:01.687Z,13
2022-11-19T02:05:02.175Z,25
2022-11-19T02:10:01.653Z,13
2022-11-19T02:15:02.032Z,32
2022-11-19T02:20:01.579Z,24
2022-11-19T02:25:01.921Z,18
2022-11-19T02:30:02.393Z,23
2022-11-19T02:35:01.766Z,14
2022-11-19T02:40:02.185Z,14
2022-11-19T02:45:01.683Z,18
2022-11-19T02:50:02.034Z,21
2022-11-19T02:55:01.553Z,14
2022-11-19T03:00:02.042Z,15
2022-11-19T03:05:01.396Z,13
2022-11-19T03:10:01.785Z,16
2022-11-19T03:15:02.141Z,15
2022-11-19T03:20:01.606Z,13
2022-11-19T03:25:01.969Z,14
2022-11-19T03:30:01.337Z,13
2022-11-19T03:35:01.829Z,13
2022-11-19T03:40:02.238Z,14
2022-11-19T03:45:01.743Z,18
2022-11-19T03:50:02.216Z,14
2022-11-19T03:55:01.641Z,12
2022-11-19T04:00:02.000Z,15
2022-11-19T04:05:01.537Z,20
2022-11-19T04:10:01.921Z,17
2022-11-19T04:15:02.264Z,15
2022-11-19T04:20:01.685Z,15
2022-11-19T04:25:02.160Z,22
2022-11-19T04:30:01.522Z,15
2022-11-19T04:35:01.995Z,18
2022-11-19T04:40:01.526Z,15
2022-11-19T04:45:01.922Z,15
2022-11-19T04:50:02.267Z,15
2022-11-19T04:55:01.617Z,17
2022-11-19T05:00:02.012Z,16
2022-11-19T05:05:01.520Z,15
2022-11-19T05:10:01.921Z,15
2022-11-19T05:15:01.394Z,18
2022-11-19T05:20:01.832Z,18
2022-11-19T05:25:02.332Z,24
2022-11-19T05:30:01.480Z,17
2022-11-19T05:35:01.828Z,18
2022-11-19T05:40:02.198Z,16
2022-11-19T05:45:01.598Z,17
2022-11-19T05:50:01.967Z,18
2022-11-19T05:55:01.509Z,19
2022-11-19T06:00:02.013Z,16
2022-11-19T06:05:01.501Z,18
2022-11-19T06:10:01.909Z,21
2022-11-19T06:15:02.399Z,18
2022-11-19T06:20:01.832Z,18
2022-11-19T06:25:02.315Z,20
2022-11-19T06:30:01.791Z,15
2022-11-19T06:35:02.265Z,15
2022-11-19T06:40:01.666Z,15
2022-11-19T06:45:02.208Z,18
2022-11-19T06:50:01.677Z,16
2022-11-19T06:55:02.025Z,15
2022-11-19T07:00:01.425Z,15
2022-11-19T07:05:01.921Z,15
2022-11-19T07:10:01.514Z,17
2022-11-19T07:15:04.610Z,15
2022-11-19T07:20:01.341Z,17
2022-11-19T07:25:01.846Z,15
2022-11-19T07:30:02.212Z,17
2022-11-19T07:35:01.704Z,15
2022-11-19T07:40:02.105Z,15
2022-11-19T07:45:01.480Z,17
2022-11-19T07:50:01.845Z,14
2022-11-19T07:55:02.311Z,17
2022-11-19T08:00:01.686Z,19
2022-11-19T08:05:02.172Z,19
2022-11-19T08:10:01.557Z,16
2022-11-19T08:15:02.055Z,19
2022-11-19T08:20:01.644Z,17
2022-11-19T08:25:02.001Z,16
2022-11-19T08:30:01.382Z,18
2022-11-19T08:35:01.855Z,13
2022-11-19T08:40:02.361Z,15
2022-11-19T08:45:01.864Z,14
2022-11-19T08:50:02.247Z,15
2022-11-19T08:55:01.636Z,15
2022-11-19T09:00:06.295Z,15
2022-11-19T09:05:02.193Z,14
2022-11-19T09:10:01.638Z,19
2022-11-19T09:15:02.026Z,20
2022-11-19T09:20:01.499Z,14
2022-11-19T09:25:01.856Z,15
2022-11-19T09:30:02.354Z,18
2022-11-19T09:35:02.101Z,14
2022-11-19T09:40:01.626Z,17
2022-11-19T09:45:02.128Z,22
2022-11-19T09:50:01.619Z,13
2022-11-19T09:55:02.112Z,19
2022-11-19T10:00:01.502Z,18
2022-11-19T10:05:02.007Z,28
2022-11-19T10:10:01.399Z,28
2022-11-19T10:15:01.861Z,38
2022-11-19T10:20:02.422Z,31
2022-11-19T10:25:01.897Z,40
2022-11-19T10:30:02.376Z,37
2022-11-19T10:35:01.753Z,36
2022-11-19T10:40:02.300Z,33
2022-11-19T10:45:01.689Z,48
2022-11-19T10:50:04.549Z,39
2022-11-19T10:55:01.976Z,42
2022-11-19T11:00:01.493Z,37
2022-11-19T11:05:01.998Z,44
2022-11-19T11:10:01.409Z,32
2022-11-19T11:15:01.833Z,34
2022-11-19T11:20:02.213Z,31
2022-11-19T11:25:07.023Z,43
2022-11-19T11:30:02.057Z,29
2022-11-19T11:35:06.920Z,35
2022-11-19T11:40:01.833Z,26
2022-11-19T11:45:02.315Z,28
2022-11-19T11:50:01.778Z,24
2022-11-19T11:55:02.261Z,23
2022-11-19T12:00:01.762Z,26
2022-11-19T12:05:02.395Z,28
2022-11-19T12:10:01.940Z,22
2022-11-19T12:15:02.439Z,21
2022-11-19T12:20:01.954Z,19
2022-11-19T12:25:01.449Z,22
2022-11-19T12:30:01.983Z,20
2022-11-19T12:35:01.463Z,17
2022-11-19T12:40:01.869Z,16
2022-11-19T12:45:02.372Z,20
2022-11-19T12:50:01.869Z,19
2022-11-19T12:55:02.230Z,16
2022-11-19T13:00:01.739Z,19
2022-11-19T13:05:02.085Z,15
2022-11-19T13:10:01.585Z,15
2022-11-19T13:15:02.068Z,19
2022-11-19T13:20:02.212Z,15
2022-11-19T13:25:01.885Z,14
2022-11-19T13:30:02.256Z,13
2022-11-19T13:35:01.790Z,10
2022-11-19T13:40:02.187Z,16
2022-11-19T13:45:01.557Z,14
2022-11-19T13:50:02.045Z,14
2022-11-19T13:55:01.541Z,16
2022-11-19T14:00:02.049Z,13
2022-11-19T14:05:01.537Z,13
2022-11-19T14:10:01.928Z,15
2022-11-19T14:15:02.308Z,16
2022-11-19T14:20:01.726Z,13
2022-11-19T14:25:02.082Z,13
2022-11-19T14:30:01.438Z,12
2022-11-19T14:35:01.846Z,9
2022-11-19T14:40:02.359Z,13
2022-11-19T14:45:01.855Z,11
2022-11-19T14:50:02.363Z,14
2022-11-19T14:55:01.844Z,20
2022-11-19T15:00:02.248Z,13
2022-11-19T15:05:01.732Z,20
2022-11-19T15:10:02.256Z,18
2022-11-19T15:15:01.801Z,14
2022-11-19T15:20:02.356Z,22
2022-11-19T15:25:01.831Z,13
2022-11-19T15:30:02.322Z,18
2022-11-19T15:35:10.805Z,16
2022-11-19T15:40:01.882Z,26
2022-11-19T15:45:01.530Z,19
2022-11-19T15:50:02.020Z,17
2022-11-19T15:55:01.462Z,19
2022-11-19T16:00:02.007Z,15
2022-11-19T16:05:01.615Z,15
2022-11-19T16:10:02.139Z,26
2022-11-19T16:15:01.650Z,13
2022-11-19T16:20:02.191Z,13
2022-11-19T16:25:01.543Z,16
2022-11-19T16:30:02.084Z,15
2022-11-19T16:35:01.556Z,23
2022-11-19T16:40:02.073Z,23
2022-11-19T16:45:01.599Z,24
2022-11-19T16:50:01.958Z,19
2022-11-19T16:55:01.509Z,18
2022-11-19T17:00:02.032Z,18
2022-11-19T17:05:01.538Z,17
2022-11-19T17:10:02.063Z,16
2022-11-19T17:15:01.560Z,19
2022-11-19T17:20:02.022Z,15
2022-11-19T17:25:01.512Z,16
2022-11-19T17:30:02.018Z,16
2022-11-19T17:35:01.554Z,16
2022-11-19T17:40:02.074Z,16
2022-11-19T17:45:05.986Z,14
2022-11-19T17:50:01.781Z,12
2022-11-19T17:55:02.264Z,12
2022-11-19T18:00:01.748Z,10
2022-11-19T18:05:02.200Z,13
2022-11-19T18:10:01.600Z,13
2022-11-19T18:15:02.359Z,12
2022-11-19T18:20:01.892Z,12
2022-11-19T18:25:02.376Z,12
2022-11-19T18:30:01.740Z,12
2022-11-19T18:35:02.220Z,13
2022-11-19T18:40:01.751Z,9
2022-11-19T18:45:02.247Z,15
2022-11-19T18:50:01.595Z,13
2022-11-19T18:55:01.952Z,10
2022-11-19T19:00:01.510Z,12
2022-11-19T19:05:02.068Z,11
2022-11-19T19:10:01.581Z,10
2022-11-19T19:15:02.085Z,9
2022-11-19T19:20:01.623Z,9
2022-11-19T19:25:02.105Z,11
2022-11-19T19:30:01.596Z,9
2022-11-19T19:35:02.087Z,15
2022-11-19T19:40:01.482Z,35
2022-11-19T19:45:01.870Z,55
2022-11-19T19:50:02.340Z,66
2022-11-19T19:55:01.763Z,70
2022-11-19T20:00:02.308Z,70
2022-11-19T20:05:01.797Z,78
2022-11-19T20:10:02.298Z,78
2022-11-19T20:15:01.791Z,66
2022-11-19T20:20:02.337Z,80
2022-11-19T20:25:01.817Z,73
2022-11-19T20:30:03.487Z,67
2022-11-19T20:35:02.249Z,68
2022-11-19T20:40:01.756Z,61
2022-11-19T20:45:02.239Z,56
2022-11-19T20:50:01.758Z,58
2022-11-19T20:55:06.389Z,58
2022-11-19T21:00:02.255Z,62
2022-11-19T21:05:01.747Z,62
2022-11-19T21:10:07.486Z,56
2022-11-19T21:15:01.332Z,61
2022-11-19T21:20:01.931Z,47
2022-11-19T21:25:02.301Z,52
2022-11-19T21:30:01.683Z,52
2022-11-19T21:35:02.191Z,45
2022-11-19T21:40:01.774Z,34
2022-11-19T21:45:02.136Z,28
2022-11-19T21:50:01.511Z,32
2022-11-19T21:55:01.893Z,29
2022-11-19T22:00:02.298Z,24
2022-11-19T22:05:01.663Z,26
2022-11-19T22:10:02.219Z,26
2022-11-19T22:15:01.730Z,25
2022-11-19T22:20:01.897Z,22
2022-11-19T22:25:02.271Z,27
2022-11-19T22:30:05.726Z,20
2022-11-19T22:35:01.583Z,20
2022-11-19T22:40:02.105Z,21
2022-11-19T22:45:01.604Z,19
2022-11-19T22:50:01.982Z,18
2022-11-19T22:55:01.342Z,19
2022-11-19T23:00:01.903Z,15
2022-11-19T23:05:02.036Z,20
2022-11-19T23:10:01.415Z,16
2022-11-19T23:15:01.828Z,14
2022-11-19T23:20:04.843Z,14
2022-11-19T23:25:01.639Z,20
2022-11-19T23:30:02.185Z,14
2022-11-19T23:35:01.660Z,15
2022-11-19T23:40:02.041Z,14
2022-11-19T23:45:01.414Z,13
2022-11-19T23:50:01.882Z,15
2022-11-19T23:55:02.237Z,17
